Time;durP1;ratioP1;P1;durP2;ratioP2;P2;SDS_P1;SDS_P2;PMS_P1;PMS_P2;Temp;Humidity;BMP_temperature;BMP_pressure;BME280_temperature;BME280_humidity;BME280_pressure;Samples;Min_cycle;Max_cycle;Signal;HPM_P1;HPM_P2
2021/11/01 00:01:53;;;;;;;3.58;1.92;;;;;;;;;;5060764;28;20503;-81
2021/11/01 00:04:18;;;;;;;2.58;1.25;;;;;;;;;;5059468;28;20097;-80
2021/11/01 00:06:44;;;;;;;1.20;1.00;;;;;;;;;;5059850;28;20127;-80
2021/11/01 00:09:09;;;;;;;2.22;1.20;;;;;;;;;;5059488;28;20037;-80
2021/11/01 00:11:35;;;;;;;1.30;1.02;;;;;;;;;;5059500;28;20037;-80
2021/11/01 00:14:01;;;;;;;2.35;1.10;;;;;;;;;;5059674;28;20090;-80
2021/11/01 00:16:27;;;;;;;1.58;0.93;;;;;;;;;;5059802;28;20048;-80
2021/11/01 00:18:53;;;;;;;4.13;0.90;;;;;;;;;;5059824;28;20471;-80
2021/11/01 00:21:19;;;;;;;0.95;0.70;;;;;;;;;;5059160;28;20144;-80
2021/11/01 00:23:45;;;;;;;1.55;1.20;;;;;;;;;;5046387;28;20467;-80
2021/11/01 00:26:11;;;;;;;2.33;0.77;;;;;;;;;;5038655;28;20045;-80
2021/11/01 00:28:36;;;;;;;0.82;0.80;;;;;;;;;;5038569;28;20056;-80
2021/11/01 00:31:02;;;;;;;0.65;0.60;;;;;;;;;;5038875;28;20043;-80
2021/11/01 00:33:27;;;;;;;1.85;0.93;;;;;;;;;;5037013;28;20398;-80
2021/11/01 00:35:54;;;;;;;1.40;1.00;;;;;;;;;;5038589;28;20034;-80
2021/11/01 00:38:19;;;;;;;1.17;0.70;;;;;;;;;;5038719;28;20102;-80
2021/11/01 00:40:45;;;;;;;2.10;0.70;;;;;;;;;;5036926;28;20061;-81
2021/11/01 00:43:11;;;;;;;2.05;0.75;;;;;;;;;;5037823;28;20065;-80
2021/11/01 00:45:36;;;;;;;3.35;1.00;;;;;;;;;;5036633;28;20041;-80
2021/11/01 00:48:02;;;;;;;3.92;1.05;;;;;;;;;;5037380;28;20057;-80
2021/11/01 00:50:29;;;;;;;4.45;1.10;;;;;;;;;;5049919;28;20487;-79
2021/11/01 00:52:55;;;;;;;1.45;1.00;;;;;;;;;;5057537;28;20128;-81
2021/11/01 00:55:25;;;;;;;3.53;0.90;;;;;;;;;;5057573;28;20115;-80
2021/11/01 00:57:51;;;;;;;2.28;0.90;;;;;;;;;;5057573;28;20032;-81
2021/11/01 01:00:16;;;;;;;3.10;0.90;;;;;;;;;;5057100;28;20041;-81
2021/11/01 01:02:44;;;;;;;4.32;0.93;;;;;;;;;;5057197;28;20116;-80
2021/11/01 01:05:10;;;;;;;2.05;0.85;;;;;;;;;;5056879;28;20052;-80
2021/11/01 01:07:35;;;;;;;3.75;0.85;;;;;;;;;;5056995;28;20029;-80
2021/11/01 01:10:02;;;;;;;5.35;2.00;;;;;;;;;;5056175;28;20107;-80
2021/11/01 01:12:28;;;;;;;8.13;0.93;;;;;;;;;;5054924;28;20036;-81
2021/11/01 01:14:58;;;;;;;6.50;1.00;;;;;;;;;;5056952;28;20048;-80
2021/11/01 01:17:25;;;;;;;2.78;0.98;;;;;;;;;;5056908;28;20071;-80
2021/11/01 01:19:58;;;;;;;3.05;1.00;;;;;;;;;;5057381;28;20487;-81
2021/11/01 01:22:29;;;;;;;4.05;1.50;;;;;;;;;;5059555;28;20033;-82
2021/11/01 01:25:03;;;;;;;4.55;1.60;;;;;;;;;;5058944;28;20045;-80
2021/11/01 01:27:31;;;;;;;3.70;1.05;;;;;;;;;;5058267;28;20054;-81
2021/11/01 01:29:56;;;;;;;3.53;1.10;;;;;;;;;;5059426;28;20394;-80
2021/11/01 01:32:22;;;;;;;2.80;1.20;;;;;;;;;;5058982;28;20081;-80
2021/11/01 01:34:47;;;;;;;4.03;1.58;;;;;;;;;;5058771;28;20044;-80
2021/11/01 01:37:13;;;;;;;3.08;1.08;;;;;;;;;;5058068;28;20079;-80
2021/11/01 01:39:38;;;;;;;6.55;1.13;;;;;;;;;;5069086;28;20040;-80
2021/11/01 01:42:04;;;;;;;6.13;1.10;;;;;;;;;;5077427;28;20449;-79
2021/11/01 01:44:29;;;;;;;4.18;1.60;;;;;;;;;;5077124;28;20037;-79
2021/11/01 01:46:56;;;;;;;2.78;1.50;;;;;;;;;;5077116;28;20037;-80
2021/11/01 01:49:21;;;;;;;4.55;1.10;;;;;;;;;;5075808;28;20032;-80
2021/11/01 01:51:46;;;;;;;4.38;1.10;;;;;;;;;;5075210;28;20048;-80
2021/11/01 01:54:12;;;;;;;6.43;1.20;;;;;;;;;;5075032;28;20044;-79
2021/11/01 01:56:37;;;;;;;4.15;1.33;;;;;;;;;;5076549;28;20393;-79
2021/11/01 01:59:11;;;;;;;3.97;1.02;;;;;;;;;;5076643;28;20379;-79
2021/11/01 02:01:41;;;;;;;4.40;1.38;;;;;;;;;;5075835;28;20394;-79
2021/11/01 02:04:07;;;;;;;9.00;1.45;;;;;;;;;;5076459;28;20032;-80
2021/11/01 02:07:07;;;;;;;6.05;1.00;;;;;;;;;;5074834;28;20036;-79
2021/11/01 02:10:05;;;;;;;3.40;0.90;;;;;;;;;;5064919;28;20043;-80
2021/11/01 02:12:54;;;;;;;4.32;1.00;;;;;;;;;;5036014;28;20446;-79
2021/11/01 02:15:43;;;;;;;7.07;0.88;;;;;;;;;;5034870;28;20034;-81
2021/11/01 02:18:09;;;;;;;7.32;1.10;;;;;;;;;;5035794;28;20068;-79
2021/11/01 02:20:52;;;;;;;6.95;1.20;;;;;;;;;;5034675;28;20073;-79
2021/11/01 02:23:37;;;;;;;2.00;0.65;;;;;;;;;;5035177;28;20137;-79
2021/11/01 02:26:03;;;;;;;7.35;2.00;;;;;;;;;;5039491;28;20029;-79
2021/11/01 02:28:33;;;;;;;5.47;1.08;;;;;;;;;;5039147;28;20033;-79
2021/11/01 02:31:00;;;;;;;3.50;1.10;;;;;;;;;;5039163;28;20029;-79
2021/11/01 02:33:26;;;;;;;2.75;1.05;;;;;;;;;;5039150;28;20040;-79
2021/11/01 02:35:52;;;;;;;3.08;0.73;;;;;;;;;;5039260;28;20060;-79
2021/11/01 02:38:21;;;;;;;1.48;1.05;;;;;;;;;;5038708;28;20072;-79
2021/11/01 02:40:47;;;;;;;5.90;1.10;;;;;;;;;;5047550;28;20052;-79
2021/11/01 02:43:14;;;;;;;7.13;1.13;;;;;;;;;;5057740;28;20060;-79
2021/11/01 02:45:39;;;;;;;8.18;1.30;;;;;;;;;;5058938;28;20440;-79
2021/11/01 02:48:05;;;;;;;8.20;1.45;;;;;;;;;;5058733;28;20043;-81
2021/11/01 02:50:32;;;;;;;5.68;1.27;;;;;;;;;;5060129;28;20033;-81
2021/11/01 02:52:57;;;;;;;4.07;0.85;;;;;;;;;;5060262;28;20064;-80
2021/11/01 02:55:23;;;;;;;9.82;1.20;;;;;;;;;;5060129;28;20041;-79
2021/11/01 02:57:49;;;;;;;10.52;1.60;;;;;;;;;;5062079;28;20037;-79
2021/11/01 03:00:18;;;;;;;8.80;2.00;;;;;;;;;;5062468;28;20083;-80
2021/11/01 03:02:44;;;;;;;9.32;2.67;;;;;;;;;;5062161;28;20048;-79
2021/11/01 03:05:13;;;;;;;14.00;1.83;;;;;;;;;;5061410;28;20041;-80
2021/11/01 03:07:40;;;;;;;9.20;1.40;;;;;;;;;;5062595;28;20045;-80
2021/11/01 03:10:07;;;;;;;16.10;1.23;;;;;;;;;;5061199;28;20048;-79
2021/11/01 03:12:33;;;;;;;3.10;0.93;;;;;;;;;;5061711;28;20029;-79
2021/11/01 03:15:02;;;;;;;5.03;1.05;;;;;;;;;;5059163;28;20044;-79
2021/11/01 03:17:34;;;;;;;14.07;1.83;;;;;;;;;;5059872;28;20510;-80
2021/11/01 03:20:08;;;;;;;4.78;1.50;;;;;;;;;;5050413;28;20034;-81
2021/11/01 03:23:01;;;;;;;4.85;1.35;;;;;;;;;;5039694;28;20073;-81
2021/11/01 03:25:31;;;;;;;4.45;1.38;;;;;;;;;;5037279;28;20064;-79
2021/11/01 03:27:59;;;;;;;5.18;1.02;;;;;;;;;;5039687;28;20522;-82
2021/11/01 03:30:25;;;;;;;9.35;1.35;;;;;;;;;;5040946;28;20041;-81
2021/11/01 03:32:52;;;;;;;4.28;1.33;;;;;;;;;;5040522;28;20034;-81
2021/11/01 03:35:19;;;;;;;6.80;2.22;;;;;;;;;;5040706;28;20403;-80
2021/11/01 03:37:46;;;;;;;6.82;1.50;;;;;;;;;;5040464;28;20040;-80
2021/11/01 03:40:17;;;;;;;4.10;1.30;;;;;;;;;;5039562;28;20053;-81
2021/11/01 03:42:43;;;;;;;7.10;1.35;;;;;;;;;;5039618;28;20413;-80
2021/11/01 03:45:10;;;;;;;5.57;1.58;;;;;;;;;;5039851;28;20053;-82
2021/11/01 03:47:45;;;;;;;6.72;1.30;;;;;;;;;;5039837;28;20041;-80
2021/11/01 03:50:32;;;;;;;7.80;1.45;;;;;;;;;;5038852;28;20037;-79
2021/11/01 03:52:57;;;;;;;9.30;1.30;;;;;;;;;;5040348;28;20041;-79
2021/11/01 03:55:31;;;;;;;7.47;1.30;;;;;;;;;;5039281;28;20033;-80
2021/11/01 03:58:00;;;;;;;6.68;1.42;;;;;;;;;;5040571;28;20041;-80
2021/11/01 04:00:29;;;;;;;6.38;1.13;;;;;;;;;;5041036;28;20033;-79
2021/11/01 04:02:55;;;;;;;2.28;0.80;;;;;;;;;;5040389;28;20034;-78
2021/11/01 04:05:20;;;;;;;7.30;1.10;;;;;;;;;;5039234;28;20365;-77
2021/11/01 04:07:46;;;;;;;12.43;2.38;;;;;;;;;;5033813;28;20041;-77
2021/11/01 04:10:12;;;;;;;9.75;1.42;;;;;;;;;;5050094;28;20120;-77
2021/11/01 04:12:38;;;;;;;7.55;1.30;;;;;;;;;;5035134;28;20463;-77
2021/11/01 04:15:18;;;;;;;12.30;1.60;;;;;;;;;;5035286;28;20095;-77
2021/11/01 04:17:49;;;;;;;10.38;1.23;;;;;;;;;;5034959;28;20095;-77
2021/11/01 04:22:42;;;;;;;15.98;1.40;;;;;;;;;;5054571;28;20044;-78
2021/11/01 04:25:08;;;;;;;17.35;1.63;;;;;;;;;;5054528;28;20106;-79
2021/11/01 04:27:37;;;;;;;8.18;1.38;;;;;;;;;;5054733;28;20051;-77
2021/11/01 04:30:08;;;;;;;4.72;1.52;;;;;;;;;;5054511;28;20390;-77
2021/11/01 04:32:36;;;;;;;7.50;1.42;;;;;;;;;;5054739;28;20395;-77
2021/11/01 04:35:09;;;;;;;8.30;1.60;;;;;;;;;;5054424;28;20033;-77
2021/11/01 04:37:35;;;;;;;8.10;1.27;;;;;;;;;;5054389;28;20055;-78
2021/11/01 04:42:51;;;;;;;8.32;1.30;;;;;;;;;;5034258;28;20049;-77
2021/11/01 04:53:26;;;;;;;3.53;1.30;;;;;;;;;;5033355;28;20044;-77
2021/11/01 04:55:52;;;;;;;6.93;1.60;;;;;;;;;;5034034;28;20040;-78
2021/11/01 04:58:18;;;;;;;17.00;1.85;;;;;;;;;;5034075;28;20095;-77
2021/11/01 05:00:45;;;;;;;12.25;1.80;;;;;;;;;;5034479;28;20128;-77
2021/11/01 05:03:20;;;;;;;8.40;1.55;;;;;;;;;;5032906;28;20141;-77
2021/11/01 05:05:47;;;;;;;6.38;1.60;;;;;;;;;;5033041;28;20045;-77
2021/11/01 05:08:14;;;;;;;4.80;1.13;;;;;;;;;;5034234;28;20081;-79
2021/11/01 05:10:42;;;;;;;8.10;1.52;;;;;;;;;;5052317;28;20074;-78
2021/11/01 05:13:30;;;;;;;6.63;1.58;;;;;;;;;;5052643;28;20498;-77
2021/11/01 05:16:04;;;;;;;6.78;1.70;;;;;;;;;;5054306;28;20041;-77
2021/11/01 05:21:46;;;;;;;13.90;1.67;;;;;;;;;;5051535;28;20078;-77
2021/11/01 05:24:21;;;;;;;4.68;1.10;;;;;;;;;;5050791;28;20044;-77
2021/11/01 05:27:20;;;;;;;11.52;1.65;;;;;;;;;;5032456;28;20053;-78
2021/11/01 05:29:52;;;;;;;4.60;1.10;;;;;;;;;;5033907;28;20052;-77
2021/11/01 05:32:22;;;;;;;8.82;1.35;;;;;;;;;;5032410;28;20399;-77
2021/11/01 05:34:47;;;;;;;9.07;1.55;;;;;;;;;;5033736;28;20056;-77
2021/11/01 05:37:12;;;;;;;11.70;1.77;;;;;;;;;;5032527;28;20476;-77
2021/11/01 05:39:38;;;;;;;6.97;1.33;;;;;;;;;;5033650;28;20475;-78
2021/11/01 05:42:05;;;;;;;22.90;3.75;;;;;;;;;;5033539;28;20045;-77
2021/11/01 05:44:31;;;;;;;8.60;1.40;;;;;;;;;;5033517;28;20037;-77
2021/11/01 05:46:57;;;;;;;13.98;1.85;;;;;;;;;;5034137;28;20041;-77
2021/11/01 05:49:23;;;;;;;9.57;1.83;;;;;;;;;;5032556;28;20546;-77
2021/11/01 05:51:51;;;;;;;8.65;1.65;;;;;;;;;;5033454;28;20030;-78
2021/11/01 05:54:20;;;;;;;10.30;1.52;;;;;;;;;;5033436;28;20102;-77
2021/11/01 06:14:34;;;;;;;11.82;2.20;;;;;;;;;;5035972;28;20037;-79
2021/11/01 06:17:00;;;;;;;14.73;2.42;;;;;;;;;;5037278;28;20096;-77
2021/11/01 06:19:25;;;;;;;16.33;2.85;;;;;;;;;;5037247;28;20479;-77
2021/11/01 06:21:51;;;;;;;14.25;2.65;;;;;;;;;;5037215;28;20041;-77
2021/11/01 06:24:48;;;;;;;9.15;2.30;;;;;;;;;;5049071;28;20041;-77
2021/11/01 06:27:07;;;;;;;13.80;2.10;;;;;;;;;;5056793;28;20057;-77
2021/11/01 06:29:34;;;;;;;15.63;2.47;;;;;;;;;;5057203;28;20127;-77
2021/11/01 06:32:48;;;;;;;14.43;3.22;;;;;;;;;;5055543;28;20044;-77
2021/11/01 06:43:17;;;;;;;15.10;1.90;;;;;;;;;;5055015;28;20033;-77
2021/11/01 06:58:44;;;;;;;6.43;1.80;;;;;;;;;;5056009;28;20041;-77
2021/11/01 08:30:12;;;;;;;4.82;1.58;;;;;;;;;;5057781;28;20127;-79
2021/11/01 08:48:40;;;;;;;7.95;1.80;;;;;;;;;;5054988;28;20037;-77
2021/11/01 08:51:28;;;;;;;10.65;1.80;;;;;;;;;;5052741;28;20041;-77
2021/11/01 09:07:55;;;;;;;8.60;1.60;;;;;;;;;;5035815;28;20045;-77
2021/11/01 09:21:25;;;;;;;12.90;2.53;;;;;;;;;;5053512;28;20032;-77
2021/11/01 09:24:04;;;;;;;9.93;1.87;;;;;;;;;;5054030;28;20041;-80
2021/11/01 09:26:40;;;;;;;10.57;2.35;;;;;;;;;;5056236;28;20283;-78
2021/11/01 09:38:13;;;;;;;6.33;1.93;;;;;;;;;;5049570;28;20049;-78
2021/11/01 09:43:13;;;;;;;9.13;1.73;;;;;;;;;;5057189;28;20045;-77
2021/11/01 09:45:38;;;;;;;5.55;1.60;;;;;;;;;;5057624;28;20045;-79
2021/11/01 09:48:06;;;;;;;8.18;2.03;;;;;;;;;;5055513;28;20119;-79
2021/11/01 09:50:34;;;;;;;12.90;2.72;;;;;;;;;;5057745;28;20097;-78
2021/11/01 09:53:02;;;;;;;4.22;1.60;;;;;;;;;;5056521;28;20571;-77
2021/11/01 10:00:41;;;;;;;13.75;1.70;;;;;;;;;;5056416;28;20029;-77
2021/11/01 10:03:06;;;;;;;7.32;1.55;;;;;;;;;;5057767;28;20514;-78
2021/11/01 10:05:34;;;;;;;4.82;1.30;;;;;;;;;;5055446;28;20455;-78
2021/11/01 10:08:00;;;;;;;7.57;1.65;;;;;;;;;;5054955;28;20033;-77
2021/11/01 10:10:28;;;;;;;7.25;2.35;;;;;;;;;;5051170;28;20408;-77
2021/11/01 10:12:56;;;;;;;7.10;1.92;;;;;;;;;;5054040;28;20104;-78
2021/11/01 10:18:09;;;;;;;7.43;1.50;;;;;;;;;;5060914;28;20045;-80
2021/11/01 10:20:41;;;;;;;6.55;1.35;;;;;;;;;;5059268;28;20045;-77
2021/11/01 10:23:15;;;;;;;9.27;1.77;;;;;;;;;;5054865;28;20029;-77
2021/11/01 10:25:40;;;;;;;5.03;1.40;;;;;;;;;;5054652;28;20029;-76
2021/11/01 10:28:06;;;;;;;13.63;2.25;;;;;;;;;;5052868;28;20043;-76
2021/11/01 10:30:33;;;;;;;10.65;1.73;;;;;;;;;;5051780;28;20123;-76
2021/11/01 10:33:04;;;;;;;11.00;2.65;;;;;;;;;;5051842;28;20559;-76
2021/11/01 10:35:32;;;;;;;7.85;1.70;;;;;;;;;;5051544;28;20029;-76
2021/11/01 10:38:35;;;;;;;7.25;1.88;;;;;;;;;;5052389;28;20041;-77
2021/11/01 10:57:34;;;;;;;7.28;1.35;;;;;;;;;;5059109;28;20037;-79
2021/11/01 11:13:28;;;;;;;10.77;1.80;;;;;;;;;;5059629;28;20036;-79
2021/11/01 11:15:57;;;;;;;5.53;1.38;;;;;;;;;;5059027;28;20045;-78
2021/11/01 11:40:22;;;;;;;9.52;1.60;;;;;;;;;;5055788;28;20045;-77
2021/11/01 11:48:35;;;;;;;8.48;1.77;;;;;;;;;;5048739;28;20040;-76
2021/11/01 11:51:10;;;;;;;9.40;1.80;;;;;;;;;;5055541;28;20554;-77
2021/11/01 11:53:48;;;;;;;7.83;1.57;;;;;;;;;;5056025;28;20471;-78
2021/11/01 11:56:14;;;;;;;6.30;1.52;;;;;;;;;;5055929;28;20039;-79
2021/11/01 11:58:43;;;;;;;5.68;1.40;;;;;;;;;;5057797;28;20036;-76
2021/11/01 12:01:36;;;;;;;9.98;1.30;;;;;;;;;;5057326;28;20036;-77
2021/11/01 12:04:05;;;;;;;11.02;2.03;;;;;;;;;;5053428;28;20029;-78
2021/11/01 12:06:45;;;;;;;7.50;1.70;;;;;;;;;;5053530;28;20069;-77
2021/11/01 12:09:14;;;;;;;6.53;2.15;;;;;;;;;;5054279;28;20082;-77
2021/11/01 12:12:12;;;;;;;8.00;2.10;;;;;;;;;;5054901;28;20024;-77
2021/11/01 12:17:29;;;;;;;8.25;1.55;;;;;;;;;;5054720;28;20124;-77
2021/11/01 12:20:06;;;;;;;3.83;1.17;;;;;;;;;;5047875;28;20460;-78
2021/11/01 12:22:35;;;;;;;6.47;1.55;;;;;;;;;;5034163;28;20507;-78
2021/11/01 12:25:05;;;;;;;6.22;0.90;;;;;;;;;;5033329;28;20112;-78
2021/11/01 12:27:35;;;;;;;5.60;1.40;;;;;;;;;;5053977;28;20029;-77
2021/11/01 12:30:08;;;;;;;7.07;1.58;;;;;;;;;;5053205;28;20099;-77
2021/11/01 12:32:39;;;;;;;5.95;1.65;;;;;;;;;;5054238;28;20079;-77
2021/11/01 12:35:29;;;;;;;9.93;1.50;;;;;;;;;;5054609;28;20029;-77
2021/11/01 12:38:02;;;;;;;4.03;1.30;;;;;;;;;;5053678;28;20072;-77
2021/11/01 12:40:47;;;;;;;6.10;1.40;;;;;;;;;;5054206;28;20041;-77
2021/11/01 12:46:20;;;;;;;6.85;1.88;;;;;;;;;;5054098;28;20519;-77
2021/11/01 12:56:59;;;;;;;9.00;2.03;;;;;;;;;;5053843;28;20048;-77
2021/11/01 12:57:43;;;;;;;7.68;1.85;;;;;;;;;;5053685;28;20036;-77
2021/11/01 13:00:09;;;;;;;6.82;1.40;;;;;;;;;;5054200;28;20028;-77
2021/11/01 13:02:39;;;;;;;7.20;1.40;;;;;;;;;;5053797;28;20094;-77
2021/11/01 13:05:12;;;;;;;5.88;1.65;;;;;;;;;;5053857;28;20032;-77
2021/11/01 13:07:49;;;;;;;8.88;1.25;;;;;;;;;;5051605;28;20044;-77
2021/11/01 13:10:36;;;;;;;7.32;1.60;;;;;;;;;;5052718;28;20043;-77
2021/11/01 13:18:37;;;;;;;11.82;1.63;;;;;;;;;;5053464;28;20095;-77
2021/11/01 13:21:23;;;;;;;9.63;1.85;;;;;;;;;;5053733;28;20037;-78
2021/11/01 13:24:04;;;;;;;7.90;1.17;;;;;;;;;;5053410;28;20052;-77
2021/11/01 13:27:25;;;;;;;5.85;1.48;;;;;;;;;;5052325;28;20041;-77
2021/11/01 13:37:22;;;;;;;6.20;2.13;;;;;;;;;;5051711;28;20455;-78
2021/11/01 13:40:03;;;;;;;6.63;2.05;;;;;;;;;;5065390;28;20036;-78
2021/11/01 13:42:29;;;;;;;14.27;4.25;;;;;;;;;;5073147;28;20041;-78
2021/11/01 13:45:15;;;;;;;9.40;2.80;;;;;;;;;;5073441;28;20116;-77
2021/11/01 13:47:42;;;;;;;6.82;2.58;;;;;;;;;;5072951;28;20037;-77
2021/11/01 13:50:08;;;;;;;8.48;1.67;;;;;;;;;;5071952;28;20453;-78
2021/11/01 13:52:41;;;;;;;9.02;1.83;;;;;;;;;;5073079;28;20056;-77
2021/11/01 13:57:58;;;;;;;8.82;1.85;;;;;;;;;;5073036;28;20108;-78
2021/11/01 14:00:37;;;;;;;7.78;1.85;;;;;;;;;;5071666;28;20119;-77
2021/11/01 14:20:23;;;;;;;8.73;1.85;;;;;;;;;;5054477;28;20090;-78
2021/11/01 14:28:25;;;;;;;13.40;2.10;;;;;;;;;;5056942;28;20041;-77
2021/11/01 15:00:57;;;;;;;9.98;1.73;;;;;;;;;;5036402;28;20033;-76
2021/11/01 15:14:22;;;;;;;16.25;2.85;;;;;;;;;;5055853;28;20087;-76
2021/11/01 15:38:16;;;;;;;11.80;2.03;;;;;;;;;;5055285;28;20128;-77
2021/11/01 16:18:55;;;;;;;10.23;2.25;;;;;;;;;;5054697;28;20074;-75
2021/11/01 16:21:21;;;;;;;9.43;2.58;;;;;;;;;;5052378;28;20033;-76
2021/11/01 16:23:46;;;;;;;12.45;4.38;;;;;;;;;;5054176;28;20033;-76
2021/11/01 16:28:50;;;;;;;17.10;5.03;;;;;;;;;;5054554;28;20112;-76
2021/11/01 16:31:30;;;;;;;10.65;2.47;;;;;;;;;;5054911;28;20075;-76
2021/11/01 16:34:21;;;;;;;7.25;2.40;;;;;;;;;;5052389;28;20395;-76
2021/11/01 16:37:00;;;;;;;16.85;2.95;;;;;;;;;;5053614;28;20053;-77
2021/11/01 16:39:30;;;;;;;12.98;3.63;;;;;;;;;;5054251;28;20033;-76
2021/11/01 16:41:57;;;;;;;26.35;9.52;;;;;;;;;;5053090;28;20053;-76
2021/11/01 16:44:33;;;;;;;20.98;6.97;;;;;;;;;;5054125;28;20116;-76
2021/11/01 16:46:59;;;;;;;22.88;8.38;;;;;;;;;;5051610;28;20064;-76
2021/11/01 16:49:28;;;;;;;13.50;3.67;;;;;;;;;;5053990;28;20106;-77
2021/11/01 16:51:53;;;;;;;17.20;7.55;;;;;;;;;;5059204;28;20020;-76
2021/11/01 16:54:24;;;;;;;13.77;5.15;;;;;;;;;;5073618;28;20500;-76
2021/11/01 16:59:38;;;;;;;16.85;5.05;;;;;;;;;;5039176;28;20045;-76
2021/11/01 17:05:11;;;;;;;17.40;6.75;;;;;;;;;;5032256;28;20053;-76
2021/11/01 17:07:57;;;;;;;14.00;4.45;;;;;;;;;;5033575;28;20052;-77
2021/11/01 17:26:29;;;;;;;11.90;2.78;;;;;;;;;;5041483;28;20100;-76
2021/11/01 17:37:37;;;;;;;10.38;2.35;;;;;;;;;;5042094;28;20082;-76
2021/11/01 18:36:20;;;;;;;14.38;2.92;;;;;;;;;;5051654;28;20475;-76
2021/11/01 18:39:11;;;;;;;13.60;2.72;;;;;;;;;;5042752;28;20037;-76
2021/11/01 18:41:46;;;;;;;7.88;1.80;;;;;;;;;;5042294;28;20050;-76
2021/11/01 18:52:12;;;;;;;8.02;2.42;;;;;;;;;;5052463;28;20064;-77
2021/11/01 18:54:41;;;;;;;9.75;3.20;;;;;;;;;;5052630;28;20036;-76
2021/11/01 18:57:07;;;;;;;11.02;3.10;;;;;;;;;;5051035;28;20029;-76
2021/11/01 18:59:36;;;;;;;10.30;2.70;;;;;;;;;;5052760;28;20419;-76
2021/11/01 19:04:45;;;;;;;8.18;2.50;;;;;;;;;;5051938;28;20586;-77
2021/11/01 19:07:20;;;;;;;9.23;1.90;;;;;;;;;;5055480;28;20711;-76
2021/11/01 20:12:49;;;;;;;16.35;6.25;;;;;;;;;;5043933;28;20454;-77
2021/11/01 20:15:33;;;;;;;11.95;5.13;;;;;;;;;;5042041;28;20037;-77
2021/11/01 21:25:24;;;;;;;7.70;3.40;;;;;;;;;;5051207;28;20407;-77
2021/11/01 21:27:50;;;;;;;16.55;5.45;;;;;;;;;;5053100;28;20044;-77
2021/11/01 21:30:17;;;;;;;10.02;5.25;;;;;;;;;;5051760;28;20130;-77
2021/11/01 21:32:43;;;;;;;13.65;4.72;;;;;;;;;;5053348;28;20082;-77
2021/11/01 21:35:15;;;;;;;8.30;3.65;;;;;;;;;;5053327;28;20048;-77
2021/11/01 21:37:41;;;;;;;10.15;3.33;;;;;;;;;;5052115;28;20116;-77
2021/11/01 21:40:10;;;;;;;11.35;5.90;;;;;;;;;;5052332;28;20104;-77
2021/11/01 21:42:36;;;;;;;11.10;6.03;;;;;;;;;;5051985;28;20461;-77
2021/11/01 21:45:02;;;;;;;13.85;5.90;;;;;;;;;;5053125;28;20156;-77
2021/11/01 21:47:28;;;;;;;10.25;4.93;;;;;;;;;;5051931;28;20029;-77
2021/11/01 21:49:55;;;;;;;10.57;5.00;;;;;;;;;;5053240;28;20037;-77
2021/11/01 21:52:22;;;;;;;16.33;6.75;;;;;;;;;;5053176;28;20039;-77
2021/11/01 21:54:50;;;;;;;22.30;5.80;;;;;;;;;;5052922;28;20090;-77
2021/11/01 21:57:24;;;;;;;16.35;6.47;;;;;;;;;;5053166;28;20029;-77
2021/11/01 22:00:20;;;;;;;15.07;6.50;;;;;;;;;;5052291;28;20394;-77
2021/11/01 22:22:14;;;;;;;5.65;1.70;;;;;;;;;;5031479;28;20049;-77
2021/11/01 22:33:07;;;;;;;6.00;2.40;;;;;;;;;;5052627;28;20025;-77
2021/11/01 22:38:27;;;;;;;3.90;1.95;;;;;;;;;;5052508;28;20048;-77
2021/11/01 22:41:01;;;;;;;7.95;3.78;;;;;;;;;;5052487;28;20053;-77
2021/11/01 22:56:49;;;;;;;7.00;2.42;;;;;;;;;;5056214;28;20033;-77
2021/11/01 22:59:17;;;;;;;12.02;2.88;;;;;;;;;;5054949;28;20037;-77
2021/11/01 23:01:45;;;;;;;7.75;3.50;;;;;;;;;;5054788;28;20069;-77
2021/11/01 23:04:26;;;;;;;8.52;4.10;;;;;;;;;;5055784;28;20091;-77
2021/11/01 23:33:43;;;;;;;14.27;4.53;;;;;;;;;;5055728;28;20035;-78
2021/11/01 23:36:11;;;;;;;17.48;5.68;;;;;;;;;;5055703;28;20063;-78
2021/11/01 23:38:37;;;;;;;10.48;4.90;;;;;;;;;;5055407;28;20036;-78
2021/11/01 23:41:02;;;;;;;6.95;3.08;;;;;;;;;;5059809;28;20086;-78
2021/11/01 23:43:29;;;;;;;10.45;2.80;;;;;;;;;;5075270;28;20040;-78
2021/11/01 23:45:55;;;;;;;5.80;2.53;;;;;;;;;;5075387;28;20029;-78
2021/11/01 23:48:21;;;;;;;5.60;2.50;;;;;;;;;;5075344;28;20036;-78
2021/11/01 23:50:51;;;;;;;7.25;2.55;;;;;;;;;;5075282;28;20063;-78
2021/11/01 23:56:02;;;;;;;6.22;2.60;;;;;;;;;;5074982;28;20122;-78
2021/11/01 23:58:28;;;;;;;6.32;2.00;;;;;;;;;;5073674;28;20174;-77
